Cincinnati, Ohio
Traffic Map
Current Weather Conditions
Cincinnati, Ohio
Clear
Clear
13°
Feels Like: 13°
Wind Chill: 13° Ceiling: Unl
Heat Index: 13° Visibility: 10mi
Dew Point: Wind: 3mph
Humidity: 80% Direction: 220° (SW)
Pressure: 30.35in Gusts: 0mph
Raw Report DataKLUK 181453Z 22003KT 10SM CLR 13/09 A3035 RMK AO2 SLP277 T01280094 50005
Traffic Incident Summary
Active as of:
Severity:
Category:
InformationThere was an issue retrieving the traffic information for this location. Please try a different location or try again shortly.
Advertisements